sensor_id;sensor_type;location;lat;lon;timestamp;temperature;humidity
12622;DHT22;6376;48.182;-1.644;2023-06-01T00:02:00;19.30;76.70
12622;DHT22;6376;48.182;-1.644;2023-06-01T00:04:25;19.30;76.80
12622;DHT22;6376;48.182;-1.644;2023-06-01T00:06:51;19.30;76.90
12622;DHT22;6376;48.182;-1.644;2023-06-01T00:09:16;19.30;76.90
12622;DHT22;6376;48.182;-1.644;2023-06-01T00:11:43;19.30;76.90
12622;DHT22;6376;48.182;-1.644;2023-06-01T00:14:08;19.30;76.90
12622;DHT22;6376;48.182;-1.644;2023-06-01T00:16:34;19.30;77.00
12622;DHT22;6376;48.182;-1.644;2023-06-01T00:19:02;19.30;76.90
12622;DHT22;6376;48.182;-1.644;2023-06-01T00:21:30;19.30;77.00
12622;DHT22;6376;48.182;-1.644;2023-06-01T00:23:58;19.20;77.00
12622;DHT22;6376;48.182;-1.644;2023-06-01T00:26:24;19.20;77.10
12622;DHT22;6376;48.182;-1.644;2023-06-01T00:28:50;19.20;77.10
12622;DHT22;6376;48.182;-1.644;2023-06-01T00:31:16;19.20;77.10
12622;DHT22;6376;48.182;-1.644;2023-06-01T00:33:41;19.20;77.10
12622;DHT22;6376;48.182;-1.644;2023-06-01T00:36:07;19.20;78.00
12622;DHT22;6376;48.182;-1.644;2023-06-01T00:38:33;19.20;77.10
12622;DHT22;6376;48.182;-1.644;2023-06-01T00:40:58;19.20;77.20
12622;DHT22;6376;48.182;-1.644;2023-06-01T00:43:24;19.10;77.20
12622;DHT22;6376;48.182;-1.644;2023-06-01T00:45:50;19.10;77.40
12622;DHT22;6376;48.182;-1.644;2023-06-01T00:48:16;19.10;77.40
12622;DHT22;6376;48.182;-1.644;2023-06-01T00:50:43;19.10;77.50
12622;DHT22;6376;48.182;-1.644;2023-06-01T00:53:15;19.10;77.50
12622;DHT22;6376;48.182;-1.644;2023-06-01T00:55:42;19.10;77.50
12622;DHT22;6376;48.182;-1.644;2023-06-01T00:58:07;19.10;77.50
12622;DHT22;6376;48.182;-1.644;2023-06-01T01:00:33;19.10;77.70
12622;DHT22;6376;48.182;-1.644;2023-06-01T01:02:59;19.10;77.70
12622;DHT22;6376;48.182;-1.644;2023-06-01T01:05:34;19.10;77.70
12622;DHT22;6376;48.182;-1.644;2023-06-01T01:08:24;19.10;77.70
12622;DHT22;6376;48.182;-1.644;2023-06-01T01:10:59;19.10;77.70
12622;DHT22;6376;48.182;-1.644;2023-06-01T01:13:48;19.00;77.60
12622;DHT22;6376;48.182;-1.644;2023-06-01T01:16:26;19.00;77.60
12622;DHT22;6376;48.182;-1.644;2023-06-01T01:19:11;19.00;77.60
12622;DHT22;6376;48.182;-1.644;2023-06-01T01:21:52;19.00;77.70
12622;DHT22;6376;48.182;-1.644;2023-06-01T01:24:43;19.00;
12622;DHT22;6376;48.182;-1.644;2023-06-01T01:27:39;19.00;77.70
12622;DHT22;6376;48.182;-1.644;2023-06-01T01:30:10;19.00;77.90
12622;DHT22;6376;48.182;-1.644;2023-06-01T01:32:37;18.90;77.90
12622;DHT22;6376;48.182;-1.644;2023-06-01T01:35:04;19.00;78.00
12622;DHT22;6376;48.182;-1.644;2023-06-01T01:37:32;18.90;78.00
12622;DHT22;6376;48.182;-1.644;2023-06-01T01:39:58;19.00;78.00
12622;DHT22;6376;48.182;-1.644;2023-06-01T01:42:24;18.90;78.00
12622;DHT22;6376;48.182;-1.644;2023-06-01T01:44:50;18.90;78.00
12622;DHT22;6376;48.182;-1.644;2023-06-01T01:47:31;18.90;78.00
12622;DHT22;6376;48.182;-1.644;2023-06-01T01:50:06;18.90;78.00
12622;DHT22;6376;48.182;-1.644;2023-06-01T01:52:39;18.90;78.20
12622;DHT22;6376;48.182;-1.644;2023-06-01T01:55:08;18.90;78.20
12622;DHT22;6376;48.182;-1.644;2023-06-01T01:57:35;18.90;78.20
12622;DHT22;6376;48.182;-1.644;2023-06-01T02:00:03;18.90;78.20
12622;DHT22;6376;48.182;-1.644;2023-06-01T02:02:29;18.90;78.20
12622;DHT22;6376;48.182;-1.644;2023-06-01T02:04:55;18.90;78.20
12622;DHT22;6376;48.182;-1.644;2023-06-01T02:07:21;18.80;78.30
12622;DHT22;6376;48.182;-1.644;2023-06-01T02:09:47;18.90;78.20
12622;DHT22;6376;48.182;-1.644;2023-06-01T02:12:13;18.90;78.20
12622;DHT22;6376;48.182;-1.644;2023-06-01T02:14:38;18.80;78.30
12622;DHT22;6376;48.182;-1.644;2023-06-01T02:17:04;18.80;78.50
12622;DHT22;6376;48.182;-1.644;2023-06-01T02:19:30;18.80;78.50
12622;DHT22;6376;48.182;-1.644;2023-06-01T02:21:56;18.80;78.40
12622;DHT22;6376;48.182;-1.644;2023-06-01T02:24:22;18.80;78.40
12622;DHT22;6376;48.182;-1.644;2023-06-01T02:26:47;18.80;78.40
12622;DHT22;6376;48.182;-1.644;2023-06-01T02:29:17;18.80;78.50
12622;DHT22;6376;48.182;-1.644;2023-06-01T02:31:45;18.70;78.50
12622;DHT22;6376;48.182;-1.644;2023-06-01T02:34:11;18.70;78.60
12622;DHT22;6376;48.182;-1.644;2023-06-01T02:36:36;18.70;78.60
12622;DHT22;6376;48.182;-1.644;2023-06-01T02:39:02;18.80;78.60
12622;DHT22;6376;48.182;-1.644;2023-06-01T02:41:28;18.70;78.60
12622;DHT22;6376;48.182;-1.644;2023-06-01T02:43:53;18.70;78.50
12622;DHT22;6376;48.182;-1.644;2023-06-01T02:46:19;18.70;78.70
12622;DHT22;6376;48.182;-1.644;2023-06-01T02:48:45;18.70;78.80
12622;DHT22;6376;48.182;-1.644;2023-06-01T02:51:11;18.70;78.70
12622;DHT22;6376;48.182;-1.644;2023-06-01T02:53:41;18.70;78.70
12622;DHT22;6376;48.182;-1.644;2023-06-01T02:56:06;18.70;78.80
12622;DHT22;6376;48.182;-1.644;2023-06-01T02:58:32;18.70;78.80
12622;DHT22;6376;48.182;-1.644;2023-06-01T03:00:58;18.70;78.70
12622;DHT22;6376;48.182;-1.644;2023-06-01T03:03:24;18.70;78.80
12622;DHT22;6376;48.182;-1.644;2023-06-01T03:05:51;18.70;78.80
12622;DHT22;6376;48.182;-1.644;2023-06-01T03:08:16;18.70;78.80
12622;DHT22;6376;48.182;-1.644;2023-06-01T03:10:43;18.70;78.80
12622;DHT22;6376;48.182;-1.644;2023-06-01T03:13:08;18.70;78.90
12622;DHT22;6376;48.182;-1.644;2023-06-01T03:15:34;18.70;78.90
12622;DHT22;6376;48.182;-1.644;2023-06-01T03:18:00;18.60;78.90
12622;DHT22;6376;48.182;-1.644;2023-06-01T03:20:26;18.60;78.90
12622;DHT22;6376;48.182;-1.644;2023-06-01T03:22:52;18.60;79.00
12622;DHT22;6376;48.182;-1.644;2023-06-01T03:25:18;18.60;79.00
12622;DHT22;6376;48.182;-1.644;2023-06-01T03:27:43;18.60;79.10
12622;DHT22;6376;48.182;-1.644;2023-06-01T03:30:10;18.60;79.20
12622;DHT22;6376;48.182;-1.644;2023-06-01T03:32:43;18.60;79.20
12622;DHT22;6376;48.182;-1.644;2023-06-01T03:35:09;18.60;79.10
12622;DHT22;6376;48.182;-1.644;2023-06-01T03:37:36;18.60;79.10
12622;DHT22;6376;48.182;-1.644;2023-06-01T03:40:03;18.60;79.10
12622;DHT22;6376;48.182;-1.644;2023-06-01T03:42:39;18.60;79.20
12622;DHT22;6376;48.182;-1.644;2023-06-01T03:45:05;18.50;79.10
12622;DHT22;6376;48.182;-1.644;2023-06-01T03:47:31;18.50;79.60
12622;DHT22;6376;48.182;-1.644;2023-06-01T03:49:58;18.50;79.30
12622;DHT22;6376;48.182;-1.644;2023-06-01T03:52:27;18.50;79.20
12622;DHT22;6376;48.182;-1.644;2023-06-01T03:54:55;18.50;79.30
12622;DHT22;6376;48.182;-1.644;2023-06-01T03:57:21;18.50;79.40
12622;DHT22;6376;48.182;-1.644;2023-06-01T03:59:47;18.50;79.30
12622;DHT22;6376;48.182;-1.644;2023-06-01T04:02:13;18.50;79.30
12622;DHT22;6376;48.182;-1.644;2023-06-01T04:04:39;18.50;79.20
12622;DHT22;6376;48.182;-1.644;2023-06-01T04:07:11;18.50;79.30
12622;DHT22;6376;48.182;-1.644;2023-06-01T04:09:40;18.50;79.40
12622;DHT22;6376;48.182;-1.644;2023-06-01T04:12:06;18.40;79.40
12622;DHT22;6376;48.182;-1.644;2023-06-01T04:14:31;18.40;79.50
12622;DHT22;6376;48.182;-1.644;2023-06-01T04:16:57;18.40;80.30
12622;DHT22;6376;48.182;-1.644;2023-06-01T04:19:23;18.40;79.50
12622;DHT22;6376;48.182;-1.644;2023-06-01T04:21:48;18.40;79.50
12622;DHT22;6376;48.182;-1.644;2023-06-01T04:24:15;18.40;79.40
12622;DHT22;6376;48.182;-1.644;2023-06-01T04:26:41;18.40;79.40
12622;DHT22;6376;48.182;-1.644;2023-06-01T04:29:07;18.40;79.50
12622;DHT22;6376;48.182;-1.644;2023-06-01T04:31:37;18.40;79.50
12622;DHT22;6376;48.182;-1.644;2023-06-01T04:34:03;18.40;79.60
12622;DHT22;6376;48.182;-1.644;2023-06-01T04:36:35;18.40;79.50
12622;DHT22;6376;48.182;-1.644;2023-06-01T04:39:05;18.40;79.50
12622;DHT22;6376;48.182;-1.644;2023-06-01T04:41:33;18.40;79.60
12622;DHT22;6376;48.182;-1.644;2023-06-01T04:44:03;18.40;79.60
12622;DHT22;6376;48.182;-1.644;2023-06-01T04:46:32;18.40;79.50
12622;DHT22;6376;48.182;-1.644;2023-06-01T04:48:58;18.40;79.50
12622;DHT22;6376;48.182;-1.644;2023-06-01T04:51:29;18.40;79.70
12622;DHT22;6376;48.182;-1.644;2023-06-01T04:53:56;18.30;79.70
12622;DHT22;6376;48.182;-1.644;2023-06-01T04:56:23;18.40;79.70
12622;DHT22;6376;48.182;-1.644;2023-06-01T04:58:50;18.40;79.60
12622;DHT22;6376;48.182;-1.644;2023-06-01T05:01:17;18.30;79.60
12622;DHT22;6376;48.182;-1.644;2023-06-01T05:03:43;18.30;79.60
12622;DHT22;6376;48.182;-1.644;2023-06-01T05:06:10;18.30;79.60
12622;DHT22;6376;48.182;-1.644;2023-06-01T05:08:40;18.30;79.60
12622;DHT22;6376;48.182;-1.644;2023-06-01T05:11:07;18.30;79.70
12622;DHT22;6376;48.182;-1.644;2023-06-01T05:13:37;18.30;79.80
12622;DHT22;6376;48.182;-1.644;2023-06-01T05:16:04;18.30;79.70
12622;DHT22;6376;48.182;-1.644;2023-06-01T05:18:31;18.30;79.60
12622;DHT22;6376;48.182;-1.644;2023-06-01T05:20:57;18.30;79.60
12622;DHT22;6376;48.182;-1.644;2023-06-01T05:23:24;18.30;79.60
12622;DHT22;6376;48.182;-1.644;2023-06-01T05:25:50;18.30;79.60
12622;DHT22;6376;48.182;-1.644;2023-06-01T05:28:16;18.30;79.60
12622;DHT22;6376;48.182;-1.644;2023-06-01T05:30:41;18.30;79.50
12622;DHT22;6376;48.182;-1.644;2023-06-01T05:33:07;18.30;79.60
12622;DHT22;6376;48.182;-1.644;2023-06-01T05:35:32;18.30;79.60
12622;DHT22;6376;48.182;-1.644;2023-06-01T05:37:58;18.30;79.70
12622;DHT22;6376;48.182;-1.644;2023-06-01T05:40:24;18.20;79.60
12622;DHT22;6376;48.182;-1.644;2023-06-01T05:42:49;18.30;79.60
12622;DHT22;6376;48.182;-1.644;2023-06-01T05:45:15;18.30;80.20
12622;DHT22;6376;48.182;-1.644;2023-06-01T05:47:41;18.30;79.30
12622;DHT22;6376;48.182;-1.644;2023-06-01T05:50:07;18.30;79.30
12622;DHT22;6376;48.182;-1.644;2023-06-01T05:52:32;18.30;79.30
12622;DHT22;6376;48.182;-1.644;2023-06-01T05:54:58;18.30;79.00
12622;DHT22;6376;48.182;-1.644;2023-06-01T05:57:23;18.30;79.10
12622;DHT22;6376;48.182;-1.644;2023-06-01T05:59:49;18.30;79.30
12622;DHT22;6376;48.182;-1.644;2023-06-01T06:02:15;18.30;79.30
12622;DHT22;6376;48.182;-1.644;2023-06-01T06:04:41;18.30;79.40
12622;DHT22;6376;48.182;-1.644;2023-06-01T06:07:06;18.30;79.30
12622;DHT22;6376;48.182;-1.644;2023-06-01T06:09:33;18.30;79.40
12622;DHT22;6376;48.182;-1.644;2023-06-01T06:11:59;18.30;79.30
12622;DHT22;6376;48.182;-1.644;2023-06-01T06:14:25;18.30;79.30
12622;DHT22;6376;48.182;-1.644;2023-06-01T06:16:51;18.30;79.30
12622;DHT22;6376;48.182;-1.644;2023-06-01T06:19:16;18.30;79.30
12622;DHT22;6376;48.182;-1.644;2023-06-01T06:21:42;18.30;79.40
12622;DHT22;6376;48.182;-1.644;2023-06-01T06:24:08;18.30;79.50
12622;DHT22;6376;48.182;-1.644;2023-06-01T06:26:33;18.30;79.30
12622;DHT22;6376;48.182;-1.644;2023-06-01T06:28:59;18.30;79.40
12622;DHT22;6376;48.182;-1.644;2023-06-01T06:31:25;18.30;79.40
12622;DHT22;6376;48.182;-1.644;2023-06-01T06:33:51;18.30;79.40
12622;DHT22;6376;48.182;-1.644;2023-06-01T06:36:16;18.30;79.40
12622;DHT22;6376;48.182;-1.644;2023-06-01T06:38:42;18.30;79.20
12622;DHT22;6376;48.182;-1.644;2023-06-01T06:41:08;18.40;79.10
12622;DHT22;6376;48.182;-1.644;2023-06-01T06:43:34;18.30;78.80
12622;DHT22;6376;48.182;-1.644;2023-06-01T06:45:59;18.30;79.00
12622;DHT22;6376;48.182;-1.644;2023-06-01T06:48:25;18.40;79.00
12622;DHT22;6376;48.182;-1.644;2023-06-01T06:50:51;18.30;78.90
12622;DHT22;6376;48.182;-1.644;2023-06-01T06:53:17;18.30;78.90
12622;DHT22;6376;48.182;-1.644;2023-06-01T06:55:43;18.40;78.80
12622;DHT22;6376;48.182;-1.644;2023-06-01T06:58:10;18.40;78.80
12622;DHT22;6376;48.182;-1.644;2023-06-01T07:00:39;18.40;78.60
12622;DHT22;6376;48.182;-1.644;2023-06-01T07:03:06;18.40;78.90
12622;DHT22;6376;48.182;-1.644;2023-06-01T07:05:32;18.40;79.10
12622;DHT22;6376;48.182;-1.644;2023-06-01T07:07:57;18.40;79.00
12622;DHT22;6376;48.182;-1.644;2023-06-01T07:10:23;18.40;79.20
12622;DHT22;6376;48.182;-1.644;2023-06-01T07:12:50;18.40;79.40
12622;DHT22;6376;48.182;-1.644;2023-06-01T07:15:15;18.40;79.40
12622;DHT22;6376;48.182;-1.644;2023-06-01T07:17:42;18.40;79.50
12622;DHT22;6376;48.182;-1.644;2023-06-01T07:20:08;18.50;79.50
12622;DHT22;6376;48.182;-1.644;2023-06-01T07:22:37;18.40;79.40
12622;DHT22;6376;48.182;-1.644;2023-06-01T07:25:03;18.50;79.60
12622;DHT22;6376;48.182;-1.644;2023-06-01T07:27:29;18.50;79.40
12622;DHT22;6376;48.182;-1.644;2023-06-01T07:29:55;18.50;79.10
12622;DHT22;6376;48.182;-1.644;2023-06-01T07:32:25;18.50;78.90
12622;DHT22;6376;48.182;-1.644;2023-06-01T07:34:51;18.50;78.60
12622;DHT22;6376;48.182;-1.644;2023-06-01T07:37:17;18.60;78.60
12622;DHT22;6376;48.182;-1.644;2023-06-01T07:39:47;18.60;78.30
12622;DHT22;6376;48.182;-1.644;2023-06-01T07:42:13;18.60;78.40
12622;DHT22;6376;48.182;-1.644;2023-06-01T07:44:39;18.60;78.30
12622;DHT22;6376;48.182;-1.644;2023-06-01T07:47:05;18.60;78.20
12622;DHT22;6376;48.182;-1.644;2023-06-01T07:49:31;18.70;77.90
12622;DHT22;6376;48.182;-1.644;2023-06-01T07:51:56;18.70;77.90
12622;DHT22;6376;48.182;-1.644;2023-06-01T07:54:24;18.70;77.70
12622;DHT22;6376;48.182;-1.644;2023-06-01T07:56:49;18.70;77.70
12622;DHT22;6376;48.182;-1.644;2023-06-01T07:59:16;18.80;77.80
12622;DHT22;6376;48.182;-1.644;2023-06-01T08:01:41;18.80;77.70
12622;DHT22;6376;48.182;-1.644;2023-06-01T08:04:07;18.80;77.50
12622;DHT22;6376;48.182;-1.644;2023-06-01T08:06:33;18.80;77.30
12622;DHT22;6376;48.182;-1.644;2023-06-01T08:09:02;18.90;77.00
12622;DHT22;6376;48.182;-1.644;2023-06-01T08:11:28;18.90;76.90
12622;DHT22;6376;48.182;-1.644;2023-06-01T08:13:54;19.10;76.60
12622;DHT22;6376;48.182;-1.644;2023-06-01T08:16:19;19.20;76.10
12622;DHT22;6376;48.182;-1.644;2023-06-01T08:18:46;19.20;75.60
12622;DHT22;6376;48.182;-1.644;2023-06-01T08:21:11;19.40;75.40
12622;DHT22;6376;48.182;-1.644;2023-06-01T08:23:37;19.40;74.90
12622;DHT22;6376;48.182;-1.644;2023-06-01T08:26:04;19.60;74.40
12622;DHT22;6376;48.182;-1.644;2023-06-01T08:28:29;19.70;74.00
12622;DHT22;6376;48.182;-1.644;2023-06-01T08:30:57;19.70;73.60
12622;DHT22;6376;48.182;-1.644;2023-06-01T08:33:23;19.80;73.20
12622;DHT22;6376;48.182;-1.644;2023-06-01T08:35:48;20.00;72.80
12622;DHT22;6376;48.182;-1.644;2023-06-01T08:38:14;20.00;72.30
12622;DHT22;6376;48.182;-1.644;2023-06-01T08:40:40;20.20;71.90
12622;DHT22;6376;48.182;-1.644;2023-06-01T08:45:32;20.40;71.00
12622;DHT22;6376;48.182;-1.644;2023-06-01T08:47:58;20.50;70.10
12622;DHT22;6376;48.182;-1.644;2023-06-01T08:50:26;20.80;69.40
12622;DHT22;6376;48.182;-1.644;2023-06-01T08:52:56;20.90;68.70
12622;DHT22;6376;48.182;-1.644;2023-06-01T08:55:22;21.10;68.10
12622;DHT22;6376;48.182;-1.644;2023-06-01T08:57:49;21.20;67.40
12622;DHT22;6376;48.182;-1.644;2023-06-01T09:00:15;21.40;66.80
12622;DHT22;6376;48.182;-1.644;2023-06-01T09:02:42;21.50;66.10
12622;DHT22;6376;48.182;-1.644;2023-06-01T09:05:09;21.70;65.50
12622;DHT22;6376;48.182;-1.644;2023-06-01T09:07:34;21.80;64.70
12622;DHT22;6376;48.182;-1.644;2023-06-01T09:10:00;22.00;63.80
12622;DHT22;6376;48.182;-1.644;2023-06-01T09:12:29;22.20;63.00
12622;DHT22;6376;48.182;-1.644;2023-06-01T09:15:07;22.40;62.10
12622;DHT22;6376;48.182;-1.644;2023-06-01T09:17:33;22.70;61.00
12622;DHT22;6376;48.182;-1.644;2023-06-01T09:20:00;22.90;59.90
12622;DHT22;6376;48.182;-1.644;2023-06-01T09:22:39;23.10;59.20
12622;DHT22;6376;48.182;-1.644;2023-06-01T09:25:06;23.40;58.60
12622;DHT22;6376;48.182;-1.644;2023-06-01T09:27:49;23.50;58.20
12622;DHT22;6376;48.182;-1.644;2023-06-01T09:30:16;23.60;58.10
12622;DHT22;6376;48.182;-1.644;2023-06-01T09:32:42;23.70;57.90
12622;DHT22;6376;48.182;-1.644;2023-06-01T09:35:10;23.90;57.60
12622;DHT22;6376;48.182;-1.644;2023-06-01T09:37:37;23.90;57.80
12622;DHT22;6376;48.182;-1.644;2023-06-01T09:40:16;23.80;57.90
12622;DHT22;6376;48.182;-1.644;2023-06-01T09:42:42;23.80;58.20
12622;DHT22;6376;48.182;-1.644;2023-06-01T09:45:16;23.70;58.50
12622;DHT22;6376;48.182;-1.644;2023-06-01T09:47:42;23.40;59.10
12622;DHT22;6376;48.182;-1.644;2023-06-01T09:50:08;23.30;59.90
12622;DHT22;6376;48.182;-1.644;2023-06-01T09:52:34;22.90;61.00
12622;DHT22;6376;48.182;-1.644;2023-06-01T09:55:06;22.70;62.10
12622;DHT22;6376;48.182;-1.644;2023-06-01T09:57:33;22.40;63.10
12622;DHT22;6376;48.182;-1.644;2023-06-01T10:00:01;22.00;64.50
12622;DHT22;6376;48.182;-1.644;2023-06-01T10:02:29;21.70;65.80
12622;DHT22;6376;48.182;-1.644;2023-06-01T10:04:57;21.50;66.40
12622;DHT22;6376;48.182;-1.644;2023-06-01T10:07:26;21.30;66.80
12622;DHT22;6376;48.182;-1.644;2023-06-01T10:09:57;21.30;67.20
12622;DHT22;6376;48.182;-1.644;2023-06-01T10:12:24;21.20;67.50
12622;DHT22;6376;48.182;-1.644;2023-06-01T10:14:51;21.10;67.80
12622;DHT22;6376;48.182;-1.644;2023-06-01T10:17:18;21.20;67.70
12622;DHT22;6376;48.182;-1.644;2023-06-01T10:19:44;21.10;68.00
12622;DHT22;6376;48.182;-1.644;2023-06-01T10:22:11;21.10;68.10
12622;DHT22;6376;48.182;-1.644;2023-06-01T10:24:37;21.10;68.30
12622;DHT22;6376;48.182;-1.644;2023-06-01T10:27:29;21.00;68.40
12622;DHT22;6376;48.182;-1.644;2023-06-01T10:29:57;21.00;68.40
12622;DHT22;6376;48.182;-1.644;2023-06-01T10:32:48;21.10;68.40
12622;DHT22;6376;48.182;-1.644;2023-06-01T10:40:36;21.10;68.30
12622;DHT22;6376;48.182;-1.644;2023-06-01T10:43:03;21.10;68.40
12622;DHT22;6376;48.182;-1.644;2023-06-01T10:45:38;21.10;68.30
12622;DHT22;6376;48.182;-1.644;2023-06-01T10:48:06;21.10;68.30
12622;DHT22;6376;48.182;-1.644;2023-06-01T10:50:34;21.20;68.30
12622;DHT22;6376;48.182;-1.644;2023-06-01T10:53:28;21.10;68.40
12622;DHT22;6376;48.182;-1.644;2023-06-01T10:56:18;21.20;68.40
12622;DHT22;6376;48.182;-1.644;2023-06-01T10:58:44;21.20;68.20
12622;DHT22;6376;48.182;-1.644;2023-06-01T11:01:10;21.20;68.30
12622;DHT22;6376;48.182;-1.644;2023-06-01T11:03:47;21.20;68.40
12622;DHT22;6376;48.182;-1.644;2023-06-01T11:06:29;21.20;68.30
12622;DHT22;6376;48.182;-1.644;2023-06-01T11:08:56;21.20;68.40
12622;DHT22;6376;48.182;-1.644;2023-06-01T11:11:22;21.20;68.40
12622;DHT22;6376;48.182;-1.644;2023-06-01T11:14:21;21.20;68.30
12622;DHT22;6376;48.182;-1.644;2023-06-01T11:16:49;21.30;68.30
12622;DHT22;6376;48.182;-1.644;2023-06-01T11:19:20;21.20;68.30
12622;DHT22;6376;48.182;-1.644;2023-06-01T11:21:56;21.20;68.40
12622;DHT22;6376;48.182;-1.644;2023-06-01T11:24:34;21.30;68.40
12622;DHT22;6376;48.182;-1.644;2023-06-01T11:27:08;21.30;68.20
12622;DHT22;6376;48.182;-1.644;2023-06-01T11:29:34;21.30;68.20
12622;DHT22;6376;48.182;-1.644;2023-06-01T11:32:02;21.30;68.20
12622;DHT22;6376;48.182;-1.644;2023-06-01T11:34:37;21.30;68.20
12622;DHT22;6376;48.182;-1.644;2023-06-01T11:37:05;21.30;68.20
12622;DHT22;6376;48.182;-1.644;2023-06-01T11:39:31;21.40;68.30
12622;DHT22;6376;48.182;-1.644;2023-06-01T11:42:23;21.40;68.30
12622;DHT22;6376;48.182;-1.644;2023-06-01T11:44:59;21.40;68.20
12622;DHT22;6376;48.182;-1.644;2023-06-01T11:47:28;21.40;68.30
12622;DHT22;6376;48.182;-1.644;2023-06-01T11:49:55;21.40;68.30
12622;DHT22;6376;48.182;-1.644;2023-06-01T11:52:21;21.40;68.20
12622;DHT22;6376;48.182;-1.644;2023-06-01T11:54:47;21.40;68.20
12622;DHT22;6376;48.182;-1.644;2023-06-01T11:57:14;21.40;68.20
12622;DHT22;6376;48.182;-1.644;2023-06-01T11:59:41;21.40;68.20
12622;DHT22;6376;48.182;-1.644;2023-06-01T12:02:27;21.40;68.30
12622;DHT22;6376;48.182;-1.644;2023-06-01T12:04:59;21.50;68.10
12622;DHT22;6376;48.182;-1.644;2023-06-01T12:07:27;21.40;68.10
12622;DHT22;6376;48.182;-1.644;2023-06-01T12:09:54;21.50;68.20
12622;DHT22;6376;48.182;-1.644;2023-06-01T12:12:23;21.50;68.00
12622;DHT22;6376;48.182;-1.644;2023-06-01T12:14:50;21.50;68.20
12622;DHT22;6376;48.182;-1.644;2023-06-01T12:17:16;21.50;68.20
12622;DHT22;6376;48.182;-1.644;2023-06-01T12:19:49;21.50;68.30
12622;DHT22;6376;48.182;-1.644;2023-06-01T12:22:15;21.50;69.00
12622;DHT22;6376;48.182;-1.644;2023-06-01T12:24:42;21.50;68.20
12622;DHT22;6376;48.182;-1.644;2023-06-01T12:27:16;21.50;68.00
12622;DHT22;6376;48.182;-1.644;2023-06-01T12:29:46;21.50;68.10
12622;DHT22;6376;48.182;-1.644;2023-06-01T12:32:13;21.50;68.30
12622;DHT22;6376;48.182;-1.644;2023-06-01T12:34:41;21.50;68.00
12622;DHT22;6376;48.182;-1.644;2023-06-01T12:37:17;21.60;68.00
12622;DHT22;6376;48.182;-1.644;2023-06-01T12:39:50;21.50;68.30
12622;DHT22;6376;48.182;-1.644;2023-06-01T12:42:17;21.50;68.30
12622;DHT22;6376;48.182;-1.644;2023-06-01T12:44:43;21.50;68.30
12622;DHT22;6376;48.182;-1.644;2023-06-01T12:47:11;21.50;68.20
12622;DHT22;6376;48.182;-1.644;2023-06-01T12:49:37;21.50;68.20
12622;DHT22;6376;48.182;-1.644;2023-06-01T12:52:05;21.60;68.20
12622;DHT22;6376;48.182;-1.644;2023-06-01T12:54:31;21.50;68.30
12622;DHT22;6376;48.182;-1.644;2023-06-01T12:56:57;21.50;68.30
12622;DHT22;6376;48.182;-1.644;2023-06-01T12:59:22;21.50;68.30
12622;DHT22;6376;48.182;-1.644;2023-06-01T13:01:48;21.50;68.50
12622;DHT22;6376;48.182;-1.644;2023-06-01T13:04:14;21.50;68.50
12622;DHT22;6376;48.182;-1.644;2023-06-01T13:06:40;21.50;68.30
12622;DHT22;6376;48.182;-1.644;2023-06-01T13:09:05;21.50;68.40
12622;DHT22;6376;48.182;-1.644;2023-06-01T13:11:32;21.50;68.50
12622;DHT22;6376;48.182;-1.644;2023-06-01T13:13:58;21.50;68.50
12622;DHT22;6376;48.182;-1.644;2023-06-01T13:16:23;21.50;68.60
12622;DHT22;6376;48.182;-1.644;2023-06-01T13:18:49;21.50;68.80
12622;DHT22;6376;48.182;-1.644;2023-06-01T13:21:17;21.40;68.90
12622;DHT22;6376;48.182;-1.644;2023-06-01T13:23:43;21.40;69.00
12622;DHT22;6376;48.182;-1.644;2023-06-01T13:26:09;21.50;68.80
12622;DHT22;6376;48.182;-1.644;2023-06-01T13:28:35;21.40;69.00
12622;DHT22;6376;48.182;-1.644;2023-06-01T13:31:01;21.40;69.20
12622;DHT22;6376;48.182;-1.644;2023-06-01T13:33:26;21.40;69.30
12622;DHT22;6376;48.182;-1.644;2023-06-01T13:35:52;21.40;69.20
12622;DHT22;6376;48.182;-1.644;2023-06-01T13:38:18;21.40;69.20
12622;DHT22;6376;48.182;-1.644;2023-06-01T13:40:43;21.40;69.40
12622;DHT22;6376;48.182;-1.644;2023-06-01T13:43:09;21.30;69.50
12622;DHT22;6376;48.182;-1.644;2023-06-01T13:45:35;21.30;69.50
12622;DHT22;6376;48.182;-1.644;2023-06-01T13:48:00;21.40;69.50
12622;DHT22;6376;48.182;-1.644;2023-06-01T13:50:26;21.30;69.50
12622;DHT22;6376;48.182;-1.644;2023-06-01T13:52:52;21.30;69.60
12622;DHT22;6376;48.182;-1.644;2023-06-01T13:55:19;21.30;69.50
12622;DHT22;6376;48.182;-1.644;2023-06-01T13:57:45;21.30;69.70
12622;DHT22;6376;48.182;-1.644;2023-06-01T14:00:11;21.30;69.70
12622;DHT22;6376;48.182;-1.644;2023-06-01T14:02:37;21.30;69.80
12622;DHT22;6376;48.182;-1.644;2023-06-01T14:05:04;21.30;70.00
12622;DHT22;6376;48.182;-1.644;2023-06-01T14:07:30;21.30;70.00
12622;DHT22;6376;48.182;-1.644;2023-06-01T14:09:56;21.30;69.90
12622;DHT22;6376;48.182;-1.644;2023-06-01T14:12:21;21.30;70.00
12622;DHT22;6376;48.182;-1.644;2023-06-01T14:14:47;21.30;70.10
12622;DHT22;6376;48.182;-1.644;2023-06-01T14:17:13;21.30;70.10
12622;DHT22;6376;48.182;-1.644;2023-06-01T14:19:38;21.30;70.10
12622;DHT22;6376;48.182;-1.644;2023-06-01T14:22:04;21.30;70.20
12622;DHT22;6376;48.182;-1.644;2023-06-01T14:24:30;21.30;70.20
12622;DHT22;6376;48.182;-1.644;2023-06-01T14:26:55;21.30;70.20
12622;DHT22;6376;48.182;-1.644;2023-06-01T14:29:21;21.30;70.20
12622;DHT22;6376;48.182;-1.644;2023-06-01T14:31:47;21.20;70.20
12622;DHT22;6376;48.182;-1.644;2023-06-01T14:34:13;21.20;70.30
12622;DHT22;6376;48.182;-1.644;2023-06-01T14:36:38;21.20;70.30
12622;DHT22;6376;48.182;-1.644;2023-06-01T14:39:06;21.20;70.30
12622;DHT22;6376;48.182;-1.644;2023-06-01T14:41:31;21.20;70.30
12622;DHT22;6376;48.182;-1.644;2023-06-01T14:43:57;21.20;70.30
12622;DHT22;6376;48.182;-1.644;2023-06-01T14:46:22;21.20;70.40
12622;DHT22;6376;48.182;-1.644;2023-06-01T14:48:48;21.20;70.50
12622;DHT22;6376;48.182;-1.644;2023-06-01T14:51:14;21.20;70.40
12622;DHT22;6376;48.182;-1.644;2023-06-01T14:53:40;21.20;70.50
12622;DHT22;6376;48.182;-1.644;2023-06-01T14:56:06;21.20;70.50
12622;DHT22;6376;48.182;-1.644;2023-06-01T14:58:32;21.20;70.50
12622;DHT22;6376;48.182;-1.644;2023-06-01T15:00:57;21.20;70.50
12622;DHT22;6376;48.182;-1.644;2023-06-01T15:03:23;21.20;70.50
12622;DHT22;6376;48.182;-1.644;2023-06-01T15:05:49;21.20;70.50
12622;DHT22;6376;48.182;-1.644;2023-06-01T15:08:16;21.20;70.50
12622;DHT22;6376;48.182;-1.644;2023-06-01T15:10:42;21.20;70.70
12622;DHT22;6376;48.182;-1.644;2023-06-01T15:13:09;21.20;70.70
12622;DHT22;6376;48.182;-1.644;2023-06-01T15:15:35;21.20;70.60
12622;DHT22;6376;48.182;-1.644;2023-06-01T15:18:01;21.20;70.80
12622;DHT22;6376;48.182;-1.644;2023-06-01T15:20:26;21.20;70.80
12622;DHT22;6376;48.182;-1.644;2023-06-01T15:22:55;21.20;70.80
12622;DHT22;6376;48.182;-1.644;2023-06-01T15:25:20;21.20;70.80
12622;DHT22;6376;48.182;-1.644;2023-06-01T15:27:46;21.20;70.80
12622;DHT22;6376;48.182;-1.644;2023-06-01T15:30:12;21.20;70.90
12622;DHT22;6376;48.182;-1.644;2023-06-01T15:32:37;21.20;70.90
12622;DHT22;6376;48.182;-1.644;2023-06-01T15:35:03;21.20;70.90
12622;DHT22;6376;48.182;-1.644;2023-06-01T15:37:30;21.20;70.80
12622;DHT22;6376;48.182;-1.644;2023-06-01T15:39:55;21.20;70.90
12622;DHT22;6376;48.182;-1.644;2023-06-01T15:42:21;21.20;71.00